Naples, Idaho
Current Conditions -  °F | °C
As of 2:55 PM on Tuesday 21 Oct 2014 (Local Time) from K65S Reporting Station
Few Clouds Few Clouds  
Wind Chill: 55°   Ceiling: Unl
Heat Index: 55°   Visibility: 10mi
Dew Point: 41°   Wind: 10mph
Humidity: 58%   Direction: 220°SW
Pressure: 29.88"   Gusts: 17mph
Location:  48.57°N, 116.39°W
Report Text: K65S 212155Z AUTO 22009G15KT 10SM FEW055 13/05 A2988 RMK AO2
Loading
Personal Weather Stations






























Interactive Weather Map
Tropical Storm Tracking
New forecast layout! Learn more

10-Day Weather Forecast

Advertisements
Track Severe Weather on mobile